sensor_id;sensor_type;location;lat;lon;timestamp;P1;durP1;ratioP1;P2;durP2;ratioP2
59310;SDS011;45078;51.654;21.250;2023-04-01T00:00:53;14.70;;;6.03;;
59310;SDS011;45078;51.654;21.250;2023-04-01T00:03:21;13.13;;;6.50;;
59310;SDS011;45078;51.654;21.250;2023-04-01T00:05:47;12.20;;;6.35;;
59310;SDS011;45078;51.654;21.250;2023-04-01T00:08:13;11.40;;;6.38;;
59310;SDS011;45078;51.654;21.250;2023-04-01T00:10:39;12.93;;;5.45;;
59310;SDS011;45078;51.654;21.250;2023-04-01T00:13:05;15.07;;;5.65;;
59310;SDS011;45078;51.654;21.250;2023-04-01T00:15:32;10.55;;;6.00;;
59310;SDS011;45078;51.654;21.250;2023-04-01T00:17:58;14.43;;;6.18;;
59310;SDS011;45078;51.654;21.250;2023-04-01T00:20:25;10.07;;;5.10;;
59310;SDS011;45078;51.654;21.250;2023-04-01T00:22:52;11.25;;;5.57;;
59310;SDS011;45078;51.654;21.250;2023-04-01T00:25:17;12.57;;;5.75;;
59310;SDS011;45078;51.654;21.250;2023-04-01T00:27:43;17.42;;;6.45;;
59310;SDS011;45078;51.654;21.250;2023-04-01T00:30:10;11.85;;;5.72;;
59310;SDS011;45078;51.654;21.250;2023-04-01T00:32:36;12.80;;;6.40;;
59310;SDS011;45078;51.654;21.250;2023-04-01T00:35:02;14.65;;;6.72;;
59310;SDS011;45078;51.654;21.250;2023-04-01T00:37:28;11.95;;;5.85;;
59310;SDS011;45078;51.654;21.250;2023-04-01T00:39:54;14.30;;;6.20;;
59310;SDS011;45078;51.654;21.250;2023-04-01T00:42:20;12.57;;;6.03;;
59310;SDS011;45078;51.654;21.250;2023-04-01T00:44:53;16.17;;;6.32;;
59310;SDS011;45078;51.654;21.250;2023-04-01T00:47:20;13.73;;;6.65;;
59310;SDS011;45078;51.654;21.250;2023-04-01T00:49:48;13.75;;;5.68;;
59310;SDS011;45078;51.654;21.250;2023-04-01T00:52:17;13.63;;;6.00;;
59310;SDS011;45078;51.654;21.250;2023-04-01T00:54:47;11.82;;;6.28;;
59310;SDS011;45078;51.654;21.250;2023-04-01T00:57:23;11.43;;;6.00;;
59310;SDS011;45078;51.654;21.250;2023-04-01T00:59:56;14.65;;;6.25;;
59310;SDS011;45078;51.654;21.250;2023-04-01T01:02:22;10.32;;;5.45;;
59310;SDS011;45078;51.654;21.250;2023-04-01T01:04:48;11.52;;;5.75;;
59310;SDS011;45078;51.654;21.250;2023-04-01T01:15:46;13.75;;;6.65;;
59310;SDS011;45078;51.654;21.250;2023-04-01T01:27:04;13.45;;;6.43;;
59310;SDS011;45078;51.654;21.250;2023-04-01T01:37:45;12.68;;;6.18;;
59310;SDS011;45078;51.654;21.250;2023-04-01T01:40:15;11.90;;;5.65;;
59310;SDS011;45078;51.654;21.250;2023-04-01T01:42:43;9.38;;;5.68;;
59310;SDS011;45078;51.654;21.250;2023-04-01T01:45:16;14.55;;;6.88;;
59310;SDS011;45078;51.654;21.250;2023-04-01T01:47:45;10.55;;;6.03;;
59310;SDS011;45078;51.654;21.250;2023-04-01T01:50:13;13.80;;;6.50;;
59310;SDS011;45078;51.654;21.250;2023-04-01T01:52:40;11.77;;;6.03;;
59310;SDS011;45078;51.654;21.250;2023-04-01T01:55:22;12.68;;;5.95;;
59310;SDS011;45078;51.654;21.250;2023-04-01T01:57:49;13.57;;;6.85;;
59310;SDS011;45078;51.654;21.250;2023-04-01T02:00:16;11.60;;;6.15;;
59310;SDS011;45078;51.654;21.250;2023-04-01T02:02:44;10.75;;;5.57;;
59310;SDS011;45078;51.654;21.250;2023-04-01T02:05:15;11.57;;;6.75;;
59310;SDS011;45078;51.654;21.250;2023-04-01T02:07:44;14.60;;;6.07;;
59310;SDS011;45078;51.654;21.250;2023-04-01T02:10:16;11.40;;;6.15;;
59310;SDS011;45078;51.654;21.250;2023-04-01T02:12:43;11.32;;;5.72;;
59310;SDS011;45078;51.654;21.250;2023-04-01T02:15:12;15.35;;;6.75;;
59310;SDS011;45078;51.654;21.250;2023-04-01T02:17:43;16.13;;;6.78;;
59310;SDS011;45078;51.654;21.250;2023-04-01T02:20:15;9.38;;;4.57;;
59310;SDS011;45078;51.654;21.250;2023-04-01T02:22:58;16.92;;;7.30;;
59310;SDS011;45078;51.654;21.250;2023-04-01T02:25:26;14.70;;;7.28;;
59310;SDS011;45078;51.654;21.250;2023-04-01T02:27:55;8.32;;;5.13;;
59310;SDS011;45078;51.654;21.250;2023-04-01T02:30:24;10.82;;;6.40;;
59310;SDS011;45078;51.654;21.250;2023-04-01T02:32:55;14.27;;;6.70;;
59310;SDS011;45078;51.654;21.250;2023-04-01T02:35:23;14.45;;;7.30;;
59310;SDS011;45078;51.654;21.250;2023-04-01T02:37:51;11.32;;;6.47;;
59310;SDS011;45078;51.654;21.250;2023-04-01T02:40:19;14.15;;;6.55;;
59310;SDS011;45078;51.654;21.250;2023-04-01T02:42:45;14.70;;;6.80;;
59310;SDS011;45078;51.654;21.250;2023-04-01T02:45:11;12.95;;;6.25;;
59310;SDS011;45078;51.654;21.250;2023-04-01T02:47:38;15.18;;;7.20;;
59310;SDS011;45078;51.654;21.250;2023-04-01T02:50:04;13.05;;;6.07;;
59310;SDS011;45078;51.654;21.250;2023-04-01T02:52:31;11.00;;;5.65;;
59310;SDS011;45078;51.654;21.250;2023-04-01T02:54:57;14.88;;;6.38;;
59310;SDS011;45078;51.654;21.250;2023-04-01T02:57:23;11.35;;;5.90;;
59310;SDS011;45078;51.654;21.250;2023-04-01T03:02:25;14.77;;;6.70;;
59310;SDS011;45078;51.654;21.250;2023-04-01T03:04:52;12.57;;;6.18;;
59310;SDS011;45078;51.654;21.250;2023-04-01T03:07:17;16.98;;;7.13;;
59310;SDS011;45078;51.654;21.250;2023-04-01T03:09:43;13.82;;;6.68;;
59310;SDS011;45078;51.654;21.250;2023-04-01T03:12:09;14.90;;;7.60;;
59310;SDS011;45078;51.654;21.250;2023-04-01T03:14:35;16.08;;;6.97;;
59310;SDS011;45078;51.654;21.250;2023-04-01T03:17:00;14.43;;;7.07;;
59310;SDS011;45078;51.654;21.250;2023-04-01T03:19:26;14.07;;;6.50;;
59310;SDS011;45078;51.654;21.250;2023-04-01T03:21:52;13.82;;;6.80;;
59310;SDS011;45078;51.654;21.250;2023-04-01T03:24:19;18.23;;;7.72;;
59310;SDS011;45078;51.654;21.250;2023-04-01T03:26:45;13.68;;;6.97;;
59310;SDS011;45078;51.654;21.250;2023-04-01T03:29:11;12.50;;;7.63;;
59310;SDS011;45078;51.654;21.250;2023-04-01T03:31:37;18.58;;;8.10;;
59310;SDS011;45078;51.654;21.250;2023-04-01T03:34:02;17.10;;;7.65;;
59310;SDS011;45078;51.654;21.250;2023-04-01T03:36:28;11.63;;;6.25;;
59310;SDS011;45078;51.654;21.250;2023-04-01T03:38:54;13.05;;;6.28;;
59310;SDS011;45078;51.654;21.250;2023-04-01T03:41:20;13.13;;;6.93;;
59310;SDS011;45078;51.654;21.250;2023-04-01T03:43:45;15.13;;;8.23;;
59310;SDS011;45078;51.654;21.250;2023-04-01T03:46:16;12.10;;;6.72;;
59310;SDS011;45078;51.654;21.250;2023-04-01T03:48:43;12.63;;;6.20;;
59310;SDS011;45078;51.654;21.250;2023-04-01T03:51:08;15.18;;;8.40;;
59310;SDS011;45078;51.654;21.250;2023-04-01T03:53:34;15.95;;;7.40;;
59310;SDS011;45078;51.654;21.250;2023-04-01T03:56:04;20.48;;;8.52;;
59310;SDS011;45078;51.654;21.250;2023-04-01T03:58:31;13.82;;;7.07;;
59310;SDS011;45078;51.654;21.250;2023-04-01T04:00:57;13.32;;;7.22;;
59310;SDS011;45078;51.654;21.250;2023-04-01T04:03:23;17.92;;;7.28;;
59310;SDS011;45078;51.654;21.250;2023-04-01T04:05:49;20.02;;;9.18;;
59310;SDS011;45078;51.654;21.250;2023-04-01T04:08:15;15.88;;;8.45;;
59310;SDS011;45078;51.654;21.250;2023-04-01T04:10:43;15.10;;;7.25;;
59310;SDS011;45078;51.654;21.250;2023-04-01T04:13:08;14.65;;;7.68;;
59310;SDS011;45078;51.654;21.250;2023-04-01T04:15:34;18.75;;;9.35;;
59310;SDS011;45078;51.654;21.250;2023-04-01T04:18:00;17.02;;;8.40;;
59310;SDS011;45078;51.654;21.250;2023-04-01T04:20:26;18.33;;;8.55;;
59310;SDS011;45078;51.654;21.250;2023-04-01T04:22:52;18.27;;;8.70;;
59310;SDS011;45078;51.654;21.250;2023-04-01T04:25:21;24.75;;;9.88;;
59310;SDS011;45078;51.654;21.250;2023-04-01T04:27:46;20.33;;;8.57;;
59310;SDS011;45078;51.654;21.250;2023-04-01T04:30:12;21.33;;;9.98;;
59310;SDS011;45078;51.654;21.250;2023-04-01T04:32:38;16.70;;;9.05;;
59310;SDS011;45078;51.654;21.250;2023-04-01T04:35:05;16.73;;;9.23;;
59310;SDS011;45078;51.654;21.250;2023-04-01T04:37:32;20.15;;;9.70;;
59310;SDS011;45078;51.654;21.250;2023-04-01T04:39:57;19.80;;;9.43;;
59310;SDS011;45078;51.654;21.250;2023-04-01T04:42:23;19.50;;;9.40;;
59310;SDS011;45078;51.654;21.250;2023-04-01T04:44:49;24.33;;;10.23;;
59310;SDS011;45078;51.654;21.250;2023-04-01T04:47:15;17.25;;;9.18;;
59310;SDS011;45078;51.654;21.250;2023-04-01T04:49:40;24.13;;;10.13;;
59310;SDS011;45078;51.654;21.250;2023-04-01T04:52:06;18.50;;;8.55;;
59310;SDS011;45078;51.654;21.250;2023-04-01T04:54:32;16.48;;;8.35;;
59310;SDS011;45078;51.654;21.250;2023-04-01T04:56:57;20.02;;;9.68;;
59310;SDS011;45078;51.654;21.250;2023-04-01T04:59:23;22.33;;;9.88;;
59310;SDS011;45078;51.654;21.250;2023-04-01T05:01:49;20.27;;;10.30;;
59310;SDS011;45078;51.654;21.250;2023-04-01T05:04:15;17.83;;;9.70;;
59310;SDS011;45078;51.654;21.250;2023-04-01T05:06:42;20.48;;;9.70;;
59310;SDS011;45078;51.654;21.250;2023-04-01T05:09:08;18.15;;;10.07;;
59310;SDS011;45078;51.654;21.250;2023-04-01T05:11:33;17.98;;;9.30;;
59310;SDS011;45078;51.654;21.250;2023-04-01T05:14:00;17.50;;;9.30;;
59310;SDS011;45078;51.654;21.250;2023-04-01T05:16:25;10.80;;;5.57;;
59310;SDS011;45078;51.654;21.250;2023-04-01T05:18:51;18.73;;;9.60;;
59310;SDS011;45078;51.654;21.250;2023-04-01T05:21:17;14.85;;;8.60;;
59310;SDS011;45078;51.654;21.250;2023-04-01T05:23:43;21.30;;;10.35;;
59310;SDS011;45078;51.654;21.250;2023-04-01T05:26:10;18.73;;;10.82;;
59310;SDS011;45078;51.654;21.250;2023-04-01T05:28:38;17.70;;;9.60;;
59310;SDS011;45078;51.654;21.250;2023-04-01T05:31:04;14.25;;;7.78;;
59310;SDS011;45078;51.654;21.250;2023-04-01T05:33:31;23.08;;;10.55;;
59310;SDS011;45078;51.654;21.250;2023-04-01T05:36:06;14.90;;;8.32;;
59310;SDS011;45078;51.654;21.250;2023-04-01T05:38:36;13.88;;;6.88;;
59310;SDS011;45078;51.654;21.250;2023-04-01T05:41:03;19.40;;;8.85;;
59310;SDS011;45078;51.654;21.250;2023-04-01T05:43:29;16.80;;;9.23;;
59310;SDS011;45078;51.654;21.250;2023-04-01T05:45:55;14.48;;;8.63;;
59310;SDS011;45078;51.654;21.250;2023-04-01T05:48:21;22.30;;;9.20;;
59310;SDS011;45078;51.654;21.250;2023-04-01T05:50:47;18.83;;;9.25;;
59310;SDS011;45078;51.654;21.250;2023-04-01T05:53:15;24.50;;;9.60;;
59310;SDS011;45078;51.654;21.250;2023-04-01T05:55:41;17.10;;;9.00;;
59310;SDS011;45078;51.654;21.250;2023-04-01T05:58:07;15.90;;;8.30;;
59310;SDS011;45078;51.654;21.250;2023-04-01T06:00:32;18.10;;;9.23;;
59310;SDS011;45078;51.654;21.250;2023-04-01T06:02:59;17.85;;;9.27;;
59310;SDS011;45078;51.654;21.250;2023-04-01T06:05:27;17.92;;;9.75;;
59310;SDS011;45078;51.654;21.250;2023-04-01T06:08:16;10.60;;;7.15;;
59310;SDS011;45078;51.654;21.250;2023-04-01T06:13:38;16.17;;;8.82;;
59310;SDS011;45078;51.654;21.250;2023-04-01T06:35:41;14.00;;;7.60;;
59310;SDS011;45078;51.654;21.250;2023-04-01T06:54:21;13.70;;;7.63;;
59310;SDS011;45078;51.654;21.250;2023-04-01T06:56:54;16.40;;;8.43;;
59310;SDS011;45078;51.654;21.250;2023-04-01T06:59:30;14.93;;;7.25;;
59310;SDS011;45078;51.654;21.250;2023-04-01T07:02:02;18.38;;;8.02;;
59310;SDS011;45078;51.654;21.250;2023-04-01T07:04:44;12.13;;;6.78;;
59310;SDS011;45078;51.654;21.250;2023-04-01T07:07:24;14.20;;;6.83;;
59310;SDS011;45078;51.654;21.250;2023-04-01T07:10:17;12.90;;;6.95;;
59310;SDS011;45078;51.654;21.250;2023-04-01T07:13:03;12.43;;;7.40;;
59310;SDS011;45078;51.654;21.250;2023-04-01T07:15:36;10.95;;;6.15;;
59310;SDS011;45078;51.654;21.250;2023-04-01T07:18:11;10.65;;;6.50;;
59310;SDS011;45078;51.654;21.250;2023-04-01T07:20:43;9.38;;;5.47;;
59310;SDS011;45078;51.654;21.250;2023-04-01T07:23:15;9.07;;;5.38;;
59310;SDS011;45078;51.654;21.250;2023-04-01T07:25:48;8.68;;;5.68;;
59310;SDS011;45078;51.654;21.250;2023-04-01T07:28:23;11.50;;;5.32;;
59310;SDS011;45078;51.654;21.250;2023-04-01T07:33:36;10.00;;;5.43;;
59310;SDS011;45078;51.654;21.250;2023-04-01T07:36:24;8.93;;;4.57;;
59310;SDS011;45078;51.654;21.250;2023-04-01T07:38:56;7.22;;;4.43;;
59310;SDS011;45078;51.654;21.250;2023-04-01T07:41:59;6.03;;;3.67;;
59310;SDS011;45078;51.654;21.250;2023-04-01T07:46:59;9.90;;;5.18;;
59310;SDS011;45078;51.654;21.250;2023-04-01T07:52:33;9.15;;;4.35;;
59310;SDS011;45078;51.654;21.250;2023-04-01T08:01:30;6.45;;;4.25;;
59310;SDS011;45078;51.654;21.250;2023-04-01T08:09:55;11.68;;;5.07;;
59310;SDS011;45078;51.654;21.250;2023-04-01T08:12:39;7.68;;;4.32;;
59310;SDS011;45078;51.654;21.250;2023-04-01T08:15:27;6.78;;;4.63;;
59310;SDS011;45078;51.654;21.250;2023-04-01T08:21:00;9.13;;;3.92;;
59310;SDS011;45078;51.654;21.250;2023-04-01T08:26:16;10.88;;;6.07;;
59310;SDS011;45078;51.654;21.250;2023-04-01T08:28:52;11.48;;;6.15;;
59310;SDS011;45078;51.654;21.250;2023-04-01T08:31:29;9.75;;;5.15;;
59310;SDS011;45078;51.654;21.250;2023-04-01T08:34:01;8.55;;;4.88;;
59310;SDS011;45078;51.654;21.250;2023-04-01T08:36:38;9.80;;;5.38;;
59310;SDS011;45078;51.654;21.250;2023-04-01T09:01:51;6.53;;;3.40;;
59310;SDS011;45078;51.654;21.250;2023-04-01T09:13:14;7.95;;;4.63;;
59310;SDS011;45078;51.654;21.250;2023-04-01T09:27:57;7.45;;;3.95;;
59310;SDS011;45078;51.654;21.250;2023-04-01T09:38:58;8.65;;;5.47;;
59310;SDS011;45078;51.654;21.250;2023-04-01T10:24:09;6.47;;;4.75;;
59310;SDS011;45078;51.654;21.250;2023-04-01T10:44:02;10.02;;;5.90;;
59310;SDS011;45078;51.654;21.250;2023-04-01T10:50:24;11.93;;;5.10;;
59310;SDS011;45078;51.654;21.250;2023-04-01T11:19:47;7.47;;;5.32;;
59310;SDS011;45078;51.654;21.250;2023-04-01T11:33:13;8.50;;;5.80;;
59310;SDS011;45078;51.654;21.250;2023-04-01T11:38:39;7.05;;;4.25;;
59310;SDS011;45078;51.654;21.250;2023-04-01T11:58:39;12.02;;;4.47;;
59310;SDS011;45078;51.654;21.250;2023-04-01T12:04:36;8.52;;;5.15;;
59310;SDS011;45078;51.654;21.250;2023-04-01T12:12:48;5.28;;;3.72;;
59310;SDS011;45078;51.654;21.250;2023-04-01T12:15:29;7.03;;;4.13;;
59310;SDS011;45078;51.654;21.250;2023-04-01T12:26:47;4.25;;;2.90;;
59310;SDS011;45078;51.654;21.250;2023-04-01T12:29:44;4.95;;;3.70;;
59310;SDS011;45078;51.654;21.250;2023-04-01T12:47:00;6.03;;;2.65;;
59310;SDS011;45078;51.654;21.250;2023-04-01T13:06:01;3.85;;;2.13;;
59310;SDS011;45078;51.654;21.250;2023-04-01T13:08:54;5.03;;;2.40;;
59310;SDS011;45078;51.654;21.250;2023-04-01T13:17:31;2.72;;;2.15;;
59310;SDS011;45078;51.654;21.250;2023-04-01T13:23:01;3.85;;;2.10;;
59310;SDS011;45078;51.654;21.250;2023-04-01T13:28:47;3.80;;;1.90;;
59310;SDS011;45078;51.654;21.250;2023-04-01T13:31:29;2.55;;;1.90;;
59310;SDS011;45078;51.654;21.250;2023-04-01T13:39:29;4.80;;;2.92;;
59310;SDS011;45078;51.654;21.250;2023-04-01T13:44:37;5.70;;;3.60;;
59310;SDS011;45078;51.654;21.250;2023-04-01T13:52:46;3.33;;;1.70;;
59310;SDS011;45078;51.654;21.250;2023-04-01T13:58:38;3.13;;;1.80;;
59310;SDS011;45078;51.654;21.250;2023-04-01T14:12:23;3.00;;;1.95;;
59310;SDS011;45078;51.654;21.250;2023-04-01T14:14:56;3.97;;;1.80;;
59310;SDS011;45078;51.654;21.250;2023-04-01T14:18:05;4.20;;;2.10;;
59310;SDS011;45078;51.654;21.250;2023-04-01T14:23:36;6.70;;;3.25;;
59310;SDS011;45078;51.654;21.250;2023-04-01T14:46:08;3.72;;;2.55;;
59310;SDS011;45078;51.654;21.250;2023-04-01T14:51:49;1.73;;;1.35;;
59310;SDS011;45078;51.654;21.250;2023-04-01T14:54:36;2.20;;;1.40;;
59310;SDS011;45078;51.654;21.250;2023-04-01T14:59:39;1.75;;;1.02;;
59310;SDS011;45078;51.654;21.250;2023-04-01T15:08:24;5.80;;;2.08;;
59310;SDS011;45078;51.654;21.250;2023-04-01T15:10:59;1.95;;;1.20;;
59310;SDS011;45078;51.654;21.250;2023-04-01T15:27:51;3.42;;;2.00;;
59310;SDS011;45078;51.654;21.250;2023-04-01T15:42:39;2.92;;;2.03;;
59310;SDS011;45078;51.654;21.250;2023-04-01T16:04:28;3.53;;;1.90;;
59310;SDS011;45078;51.654;21.250;2023-04-01T16:12:48;3.63;;;2.20;;
59310;SDS011;45078;51.654;21.250;2023-04-01T16:15:42;5.13;;;2.92;;
59310;SDS011;45078;51.654;21.250;2023-04-01T16:20:50;5.60;;;2.80;;
59310;SDS011;45078;51.654;21.250;2023-04-01T16:26:28;5.85;;;2.97;;
59310;SDS011;45078;51.654;21.250;2023-04-01T16:31:57;5.57;;;3.15;;
59310;SDS011;45078;51.654;21.250;2023-04-01T16:39:47;8.40;;;3.92;;
59310;SDS011;45078;51.654;21.250;2023-04-01T16:44:53;6.22;;;3.60;;
59310;SDS011;45078;51.654;21.250;2023-04-01T16:47:39;5.90;;;3.10;;
59310;SDS011;45078;51.654;21.250;2023-04-01T16:50:25;9.02;;;5.70;;
59310;SDS011;45078;51.654;21.250;2023-04-01T16:53:00;8.40;;;4.82;;
59310;SDS011;45078;51.654;21.250;2023-04-01T17:03:53;8.02;;;4.65;;
59310;SDS011;45078;51.654;21.250;2023-04-01T17:06:28;6.57;;;3.72;;
59310;SDS011;45078;51.654;21.250;2023-04-01T17:36:25;9.38;;;4.60;;
59310;SDS011;45078;51.654;21.250;2023-04-01T17:41:36;7.05;;;4.25;;
59310;SDS011;45078;51.654;21.250;2023-04-01T17:47:17;7.80;;;3.47;;
59310;SDS011;45078;51.654;21.250;2023-04-01T18:11:59;7.72;;;4.25;;
59310;SDS011;45078;51.654;21.250;2023-04-01T18:17:27;7.07;;;3.92;;
59310;SDS011;45078;51.654;21.250;2023-04-01T18:31:44;6.38;;;3.83;;
59310;SDS011;45078;51.654;21.250;2023-04-01T18:34:16;6.43;;;3.42;;
59310;SDS011;45078;51.654;21.250;2023-04-01T18:37:16;7.32;;;2.95;;
59310;SDS011;45078;51.654;21.250;2023-04-01T18:39:47;6.75;;;2.50;;
59310;SDS011;45078;51.654;21.250;2023-04-01T18:42:31;4.10;;;2.40;;
59310;SDS011;45078;51.654;21.250;2023-04-01T18:50:56;5.57;;;2.88;;
59310;SDS011;45078;51.654;21.250;2023-04-01T18:53:31;4.97;;;2.78;;
59310;SDS011;45078;51.654;21.250;2023-04-01T18:56:06;4.28;;;2.35;;
59310;SDS011;45078;51.654;21.250;2023-04-01T18:58:45;3.33;;;1.90;;
59310;SDS011;45078;51.654;21.250;2023-04-01T19:01:47;3.55;;;2.13;;
59310;SDS011;45078;51.654;21.250;2023-04-01T19:07:02;5.20;;;2.60;;
59310;SDS011;45078;51.654;21.250;2023-04-01T19:13:11;3.85;;;2.00;;
59310;SDS011;45078;51.654;21.250;2023-04-01T19:27:20;5.30;;;2.83;;
59310;SDS011;45078;51.654;21.250;2023-04-01T19:35:47;4.45;;;2.33;;
59310;SDS011;45078;51.654;21.250;2023-04-01T19:40:55;4.82;;;2.70;;
59310;SDS011;45078;51.654;21.250;2023-04-01T19:51:31;3.95;;;2.20;;
59310;SDS011;45078;51.654;21.250;2023-04-01T19:56:46;6.35;;;2.53;;
59310;SDS011;45078;51.654;21.250;2023-04-01T20:11:34;5.38;;;2.75;;
59310;SDS011;45078;51.654;21.250;2023-04-01T20:17:13;5.25;;;2.83;;
59310;SDS011;45078;51.654;21.250;2023-04-01T20:52:24;4.53;;;2.42;;
59310;SDS011;45078;51.654;21.250;2023-04-01T21:06:05;5.35;;;2.92;;
59310;SDS011;45078;51.654;21.250;2023-04-01T21:08:44;7.47;;;3.05;;
59310;SDS011;45078;51.654;21.250;2023-04-01T21:20:18;4.63;;;2.80;;
59310;SDS011;45078;51.654;21.250;2023-04-01T21:40:16;6.72;;;3.53;;
59310;SDS011;45078;51.654;21.250;2023-04-01T21:43:08;7.30;;;3.03;;
59310;SDS011;45078;51.654;21.250;2023-04-01T22:05:34;5.85;;;2.78;;
59310;SDS011;45078;51.654;21.250;2023-04-01T22:10:37;3.83;;;2.20;;
59310;SDS011;45078;51.654;21.250;2023-04-01T22:26:36;4.72;;;2.70;;
59310;SDS011;45078;51.654;21.250;2023-04-01T22:32:05;10.23;;;3.17;;
59310;SDS011;45078;51.654;21.250;2023-04-01T22:34:36;6.57;;;3.47;;
59310;SDS011;45078;51.654;21.250;2023-04-01T22:42:59;9.63;;;4.28;;
59310;SDS011;45078;51.654;21.250;2023-04-01T22:50:57;11.18;;;4.68;;
59310;SDS011;45078;51.654;21.250;2023-04-01T22:53:47;9.95;;;5.07;;
59310;SDS011;45078;51.654;21.250;2023-04-01T22:56:37;10.65;;;5.43;;
59310;SDS011;45078;51.654;21.250;2023-04-01T23:01:41;12.37;;;5.97;;
59310;SDS011;45078;51.654;21.250;2023-04-01T23:06:43;10.82;;;5.63;;
59310;SDS011;45078;51.654;21.250;2023-04-01T23:16:47;13.80;;;6.50;;
59310;SDS011;45078;51.654;21.250;2023-04-01T23:20:24;10.20;;;5.75;;
59310;SDS011;45078;51.654;21.250;2023-04-01T23:25:27;9.00;;;5.15;;
59310;SDS011;45078;51.654;21.250;2023-04-01T23:33:19;7.13;;;4.35;;
59310;SDS011;45078;51.654;21.250;2023-04-01T23:35:55;11.13;;;4.93;;
59310;SDS011;45078;51.654;21.250;2023-04-01T23:38:37;10.57;;;4.80;;
59310;SDS011;45078;51.654;21.250;2023-04-01T23:41:06;9.93;;;4.88;;
59310;SDS011;45078;51.654;21.250;2023-04-01T23:43:58;11.38;;;5.85;;
59310;SDS011;45078;51.654;21.250;2023-04-01T23:46:34;9.63;;;5.22;;
59310;SDS011;45078;51.654;21.250;2023-04-01T23:49:01;13.07;;;6.13;;
59310;SDS011;45078;51.654;21.250;2023-04-01T23:51:29;10.95;;;5.75;;
59310;SDS011;45078;51.654;21.250;2023-04-01T23:54:28;11.48;;;5.07;;
59310;SDS011;45078;51.654;21.250;2023-04-01T23:56:55;12.63;;;6.47;;
59310;SDS011;45078;51.654;21.250;2023-04-01T23:59:23;10.98;;;5.47;;
